createdAt,value
2019-02-03T00:01:06.746Z,1.60
2019-02-03T00:03:35.429Z,1.60
2019-02-03T00:06:04.742Z,1.60
2019-02-03T00:08:33.376Z,1.60
2019-02-03T00:11:02.000Z,1.70
2019-02-03T00:13:31.174Z,1.70
2019-02-03T00:15:59.852Z,1.80
2019-02-03T00:18:28.481Z,1.70
2019-02-03T00:20:57.101Z,1.70
2019-02-03T00:23:25.674Z,1.70
2019-02-03T00:25:54.313Z,1.70
2019-02-03T00:28:23.159Z,1.70
2019-02-03T00:30:51.720Z,1.70
2019-02-03T00:33:20.345Z,1.70
2019-02-03T00:35:48.934Z,1.70
2019-02-03T00:38:22.910Z,1.70
2019-02-03T00:40:47.961Z,1.70
2019-02-03T00:43:16.471Z,1.70
2019-02-03T00:45:45.103Z,1.70
2019-02-03T00:48:13.708Z,1.70
2019-02-03T00:50:42.277Z,1.70
2019-02-03T00:53:10.961Z,1.70
2019-02-03T00:55:39.953Z,1.70
2019-02-03T00:58:08.521Z,1.90
2019-02-03T01:00:37.276Z,1.80
2019-02-03T01:03:06.529Z,1.90
2019-02-03T01:05:35.155Z,1.90
2019-02-03T01:08:04.721Z,1.90
2019-02-03T01:10:33.356Z,1.90
2019-02-03T01:13:02.136Z,1.90
2019-02-03T01:15:32.373Z,1.90
2019-02-03T01:18:01.054Z,1.90
2019-02-03T01:20:29.660Z,1.90
2019-02-03T01:22:58.242Z,1.80
2019-02-03T01:25:26.818Z,1.90
2019-02-03T01:27:55.577Z,1.90
2019-02-03T01:30:24.684Z,1.80
2019-02-03T01:32:53.331Z,1.90
2019-02-03T01:35:21.926Z,1.90
2019-02-03T01:37:50.901Z,1.90
2019-02-03T01:40:20.132Z,1.90
2019-02-03T01:42:48.958Z,1.90
2019-02-03T01:45:20.062Z,1.90
2019-02-03T01:47:48.872Z,1.90
2019-02-03T01:50:17.620Z,1.90
2019-02-03T01:52:47.073Z,1.90
2019-02-03T01:55:18.111Z,1.90
2019-02-03T01:57:46.745Z,1.90
2019-02-03T02:00:20.855Z,1.90
2019-02-03T02:02:49.469Z,1.90
2019-02-03T02:05:18.151Z,2.00
2019-02-03T02:07:51.558Z,2.00
2019-02-03T02:10:19.421Z,2.00
2019-02-03T02:12:47.984Z,1.90
2019-02-03T02:15:18.256Z,1.90
2019-02-03T02:17:47.277Z,1.90
2019-02-03T02:20:20.627Z,1.90
2019-02-03T02:22:49.365Z,1.90
2019-02-03T02:25:18.118Z,1.90
2019-02-03T02:27:46.680Z,1.80
2019-02-03T02:30:21.156Z,1.80
2019-02-03T02:32:49.824Z,1.80
2019-02-03T02:35:18.504Z,1.80
2019-02-03T02:37:47.069Z,1.80
2019-02-03T02:40:25.424Z,1.80
2019-02-03T02:42:54.531Z,1.80
2019-02-03T02:45:23.334Z,1.80
2019-02-03T02:47:51.957Z,1.80
2019-02-03T02:50:26.132Z,1.80
2019-02-03T02:52:54.876Z,1.80
2019-02-03T02:55:23.549Z,1.80
2019-02-03T02:57:52.119Z,1.80
2019-02-03T03:00:23.193Z,1.90
2019-02-03T03:02:51.983Z,1.80
2019-02-03T03:05:20.676Z,1.80
2019-02-03T03:07:49.609Z,1.80
2019-02-03T03:10:20.907Z,1.80
2019-02-03T03:12:49.612Z,1.80
2019-02-03T03:15:19.736Z,1.80
2019-02-03T03:17:48.941Z,1.80
2019-02-03T03:20:21.820Z,1.80
2019-02-03T03:22:51.327Z,1.80
2019-02-03T03:25:21.369Z,1.70
2019-02-03T03:27:50.076Z,1.70
2019-02-03T03:30:23.473Z,1.80
2019-02-03T03:32:52.118Z,1.80
2019-02-03T03:35:20.818Z,1.80
2019-02-03T03:37:49.440Z,1.80
2019-02-03T03:40:23.153Z,1.80
2019-02-03T03:42:51.972Z,1.90
2019-02-03T03:45:20.716Z,1.80
2019-02-03T03:47:49.362Z,1.80
2019-02-03T03:50:18.470Z,1.80
2019-02-03T03:52:47.076Z,1.80
2019-02-03T03:55:15.717Z,1.70
2019-02-03T03:57:44.418Z,1.70
2019-02-03T04:00:20.677Z,1.70
2019-02-03T04:02:49.799Z,1.70
2019-02-03T04:05:18.737Z,1.70
2019-02-03T04:07:47.295Z,1.70
2019-02-03T04:10:18.682Z,1.70
2019-02-03T04:12:47.271Z,1.70
2019-02-03T04:15:17.685Z,1.60
2019-02-03T04:17:46.413Z,1.60
2019-02-03T04:20:28.889Z,1.60
2019-02-03T04:22:57.577Z,1.60
2019-02-03T04:25:26.146Z,1.60
2019-02-03T04:27:55.016Z,1.70
2019-02-03T04:30:25.376Z,1.70
2019-02-03T04:32:54.085Z,1.70
2019-02-03T04:35:22.772Z,1.70
2019-02-03T04:37:51.464Z,1.70
2019-02-03T04:40:21.369Z,1.70
2019-02-03T04:42:50.045Z,1.70
2019-02-03T04:45:22.313Z,1.70
2019-02-03T04:47:49.547Z,1.70
2019-02-03T04:50:19.856Z,1.70
2019-02-03T04:52:48.495Z,1.70
2019-02-03T04:55:18.933Z,1.70
2019-02-03T04:57:47.749Z,1.70
2019-02-03T05:00:21.484Z,1.70
2019-02-03T05:02:50.121Z,1.70
2019-02-03T05:05:18.844Z,1.70
2019-02-03T05:07:47.448Z,1.70
2019-02-03T05:10:16.337Z,1.70
2019-02-03T05:12:44.906Z,1.80
2019-02-03T05:15:17.914Z,1.80
2019-02-03T05:17:46.517Z,1.80
2019-02-03T05:20:20.262Z,1.80
2019-02-03T05:22:48.886Z,1.90
2019-02-03T05:25:17.449Z,1.90
2019-02-03T05:27:46.012Z,1.90
2019-02-03T05:30:26.490Z,1.90
2019-02-03T05:32:55.065Z,1.80
2019-02-03T05:35:23.825Z,1.80
2019-02-03T05:37:52.436Z,1.80
2019-02-03T05:40:21.003Z,1.80
2019-02-03T05:42:49.576Z,1.90
2019-02-03T05:45:20.346Z,1.90
2019-02-03T05:47:50.186Z,1.90
2019-02-03T05:50:21.489Z,1.90
2019-02-03T05:52:50.254Z,1.90
2019-02-03T05:55:20.053Z,1.90
2019-02-03T05:57:48.794Z,1.90
2019-02-03T06:00:33.096Z,1.90
2019-02-03T06:03:01.703Z,1.90
2019-02-03T06:05:30.264Z,1.90
2019-02-03T06:07:58.865Z,1.90
2019-02-03T06:10:27.520Z,1.90
2019-02-03T06:12:56.176Z,1.90
2019-02-03T06:15:24.859Z,1.90
2019-02-03T06:17:53.476Z,1.90
2019-02-03T06:20:22.522Z,1.90
2019-02-03T06:22:51.237Z,1.90
2019-02-03T06:25:19.879Z,1.90
2019-02-03T06:27:48.928Z,1.90
2019-02-03T06:30:26.111Z,1.90
2019-02-03T06:32:54.801Z,1.90
2019-02-03T06:35:23.489Z,2.00
2019-02-03T06:37:52.159Z,2.00
2019-02-03T06:40:21.028Z,2.00
2019-02-03T06:42:49.641Z,2.00
2019-02-03T06:45:28.829Z,1.90
2019-02-03T06:47:59.404Z,2.00
2019-02-03T06:50:28.096Z,2.00
2019-02-03T06:52:56.869Z,2.00
2019-02-03T06:55:25.431Z,2.00
2019-02-03T06:57:54.039Z,2.00
2019-02-03T07:00:22.609Z,2.00
2019-02-03T07:02:51.242Z,2.00
2019-02-03T07:05:19.884Z,2.00
2019-02-03T07:07:48.650Z,2.10
2019-02-03T07:10:17.290Z,2.30
2019-02-03T07:12:46.085Z,2.10
2019-02-03T07:15:14.849Z,2.10
2019-02-03T07:17:43.411Z,2.10
2019-02-03T07:20:19.691Z,2.10
2019-02-03T07:22:49.019Z,2.10
2019-02-03T07:25:18.072Z,2.10
2019-02-03T07:27:47.311Z,2.10
2019-02-03T07:30:21.597Z,2.10
2019-02-03T07:32:50.999Z,2.10
2019-02-03T07:35:21.406Z,2.10
2019-02-03T07:37:50.608Z,2.10
2019-02-03T07:40:20.637Z,2.10
2019-02-03T07:42:49.962Z,2.20
2019-02-03T07:45:18.809Z,2.10
2019-02-03T07:47:47.369Z,2.10
2019-02-03T07:50:17.077Z,2.10
2019-02-03T07:52:46.416Z,2.10
2019-02-03T07:55:16.277Z,2.20
2019-02-03T07:57:45.297Z,2.20
2019-02-03T08:00:20.023Z,2.30
2019-02-03T08:02:49.578Z,2.30
2019-02-03T08:05:18.354Z,2.30
2019-02-03T08:07:46.965Z,2.40
2019-02-03T08:10:26.118Z,2.40
2019-02-03T08:12:47.932Z,2.40
2019-02-03T08:15:20.900Z,2.40
2019-02-03T08:17:49.596Z,2.30
2019-02-03T08:20:29.852Z,2.30
2019-02-03T08:22:58.515Z,2.30
2019-02-03T08:25:27.475Z,2.30
2019-02-03T08:27:56.384Z,2.30
2019-02-03T08:30:29.719Z,2.30
2019-02-03T08:33:00.146Z,2.30
2019-02-03T08:35:28.720Z,2.20
2019-02-03T08:37:57.329Z,2.20
2019-02-03T08:40:36.687Z,2.20
2019-02-03T08:42:57.214Z,2.10
2019-02-03T08:45:26.229Z,2.10
2019-02-03T08:47:55.045Z,2.20
2019-02-03T08:50:24.748Z,2.30
2019-02-03T08:52:53.593Z,2.50
2019-02-03T08:55:22.278Z,2.70
2019-02-03T08:57:50.845Z,3.00
2019-02-03T09:00:33.389Z,3.20
2019-02-03T09:03:02.100Z,3.50
2019-02-03T09:05:31.084Z,3.50
2019-02-03T09:07:59.658Z,3.50
2019-02-03T09:10:28.508Z,3.40
2019-02-03T09:12:57.108Z,3.60
2019-02-03T09:15:27.106Z,3.60
2019-02-03T09:17:55.789Z,3.60
2019-02-03T09:20:27.062Z,3.60
2019-02-03T09:22:55.883Z,3.50
2019-02-03T09:25:24.551Z,3.50
2019-02-03T09:27:53.401Z,3.50
2019-02-03T09:30:29.306Z,3.40
2019-02-03T09:32:58.445Z,3.40
2019-02-03T09:35:27.149Z,3.50
2019-02-03T09:37:55.957Z,3.60
2019-02-03T09:40:29.629Z,3.80
2019-02-03T09:42:58.421Z,4.10
2019-02-03T09:45:27.521Z,4.30
2019-02-03T09:47:56.261Z,4.60
2019-02-03T09:50:27.373Z,4.80
2019-02-03T09:52:57.283Z,4.90
2019-02-03T09:55:26.015Z,4.90
2019-02-03T09:57:54.754Z,4.90
2019-02-03T10:00:26.737Z,5.10
2019-02-03T10:02:56.446Z,5.30
2019-02-03T10:05:25.100Z,5.50
2019-02-03T10:07:53.895Z,5.60
2019-02-03T10:10:30.840Z,5.60
2019-02-03T10:12:59.784Z,5.70
2019-02-03T10:15:28.457Z,5.70
2019-02-03T10:17:57.085Z,5.80
2019-02-03T10:20:26.042Z,5.80
2019-02-03T10:22:54.599Z,6.10
2019-02-03T10:25:30.772Z,6.30
2019-02-03T10:27:59.497Z,6.50
2019-02-03T10:30:28.298Z,6.60
2019-02-03T10:32:57.564Z,6.70
2019-02-03T10:35:33.946Z,6.70
2019-02-03T10:38:03.029Z,6.70
2019-02-03T10:40:34.464Z,6.80
2019-02-03T10:43:03.659Z,6.80
2019-02-03T10:45:32.587Z,7.00
2019-02-03T10:48:01.096Z,6.90
2019-02-03T10:50:31.845Z,6.90
2019-02-03T10:53:01.244Z,6.80
2019-02-03T10:55:29.992Z,6.70
2019-02-03T10:57:58.732Z,6.70
2019-02-03T11:00:30.265Z,6.80
2019-02-03T11:02:59.050Z,7.00
2019-02-03T11:05:30.387Z,7.40
2019-02-03T11:07:59.214Z,7.70
2019-02-03T11:10:28.693Z,8.00
2019-02-03T11:12:57.557Z,7.90
2019-02-03T11:15:26.369Z,7.80
2019-02-03T11:17:55.213Z,7.50
2019-02-03T11:20:31.592Z,7.20
2019-02-03T11:23:00.813Z,7.00
2019-02-03T11:25:31.511Z,6.70
2019-02-03T11:28:00.200Z,6.50
2019-02-03T11:30:32.279Z,6.30
2019-02-03T11:33:05.821Z,6.10
2019-02-03T11:35:32.399Z,5.90
2019-02-03T11:38:01.462Z,5.60
2019-02-03T11:40:32.196Z,5.50
2019-02-03T11:43:00.905Z,5.40
2019-02-03T11:45:31.643Z,5.40
2019-02-03T11:48:00.510Z,5.40
2019-02-03T11:50:32.178Z,5.50
2019-02-03T11:53:00.820Z,5.50
2019-02-03T11:55:29.658Z,5.50
2019-02-03T11:57:58.221Z,5.70
2019-02-03T12:00:29.400Z,5.60
2019-02-03T12:02:58.175Z,5.50
2019-02-03T12:05:26.779Z,5.40
2019-02-03T12:07:55.380Z,5.30
2019-02-03T12:10:30.754Z,5.30
2019-02-03T12:13:00.547Z,5.20
2019-02-03T12:15:29.324Z,5.20
2019-02-03T12:17:58.084Z,5.20
2019-02-03T12:20:26.780Z,5.20
2019-02-03T12:22:55.508Z,5.10
2019-02-03T12:25:33.552Z,5.10
2019-02-03T12:28:02.575Z,5.10
2019-02-03T12:30:33.163Z,5.20
2019-02-03T12:33:03.302Z,5.20
2019-02-03T12:35:31.965Z,5.20
2019-02-03T12:38:00.771Z,5.10
2019-02-03T12:40:34.750Z,5.10
2019-02-03T12:43:03.652Z,5.20
2019-02-03T12:45:32.287Z,5.20
2019-02-03T12:48:01.026Z,5.30
2019-02-03T12:50:31.468Z,5.20
2019-02-03T12:53:00.686Z,5.10
2019-02-03T12:55:31.496Z,5.10
2019-02-03T12:58:00.293Z,5.20
2019-02-03T13:00:30.776Z,5.20
2019-02-03T13:02:59.421Z,5.20
2019-02-03T13:05:29.953Z,5.20
2019-02-03T13:07:59.938Z,5.30
2019-02-03T13:10:30.694Z,5.40
2019-02-03T13:12:59.463Z,5.30
2019-02-03T13:15:42.831Z,5.30
2019-02-03T13:18:13.086Z,5.30
2019-02-03T13:20:42.751Z,5.30
2019-02-03T13:23:12.208Z,5.20
2019-02-03T13:25:41.165Z,5.20
2019-02-03T13:28:09.907Z,5.20
2019-02-03T13:30:45.464Z,5.10
2019-02-03T13:33:15.140Z,5.10
2019-02-03T13:35:43.776Z,5.00
2019-02-03T13:38:12.511Z,5.10
2019-02-03T13:40:41.312Z,4.90
2019-02-03T13:43:09.953Z,4.80
2019-02-03T13:45:39.053Z,4.80
2019-02-03T13:48:07.963Z,4.90
2019-02-03T13:50:36.809Z,4.90
2019-02-03T13:53:05.410Z,5.00
2019-02-03T13:55:34.071Z,5.00
2019-02-03T13:58:02.873Z,5.00
2019-02-03T14:00:37.221Z,4.90
2019-02-03T14:03:06.016Z,4.90
2019-02-03T14:05:34.756Z,5.00
2019-02-03T14:08:03.392Z,5.00
2019-02-03T14:10:34.581Z,5.00
2019-02-03T14:13:03.896Z,5.00
2019-02-03T14:15:32.781Z,5.00
2019-02-03T14:18:01.625Z,5.00
2019-02-03T14:20:31.442Z,5.00
2019-02-03T14:23:00.428Z,4.90
2019-02-03T14:25:29.535Z,4.90
2019-02-03T14:27:58.550Z,4.90
2019-02-03T14:30:39.803Z,4.80
2019-02-03T14:32:59.818Z,4.80
2019-02-03T14:35:28.486Z,4.80
2019-02-03T14:37:57.426Z,4.70
2019-02-03T14:40:26.362Z,4.70
2019-02-03T14:43:01.715Z,4.70
2019-02-03T14:45:26.814Z,4.60
2019-02-03T14:47:55.520Z,4.60
2019-02-03T14:50:25.428Z,4.60
2019-02-03T14:52:59.609Z,4.50
2019-02-03T14:55:30.525Z,4.50
2019-02-03T14:57:59.153Z,4.50
2019-02-03T15:00:32.810Z,4.50
2019-02-03T15:03:02.846Z,4.40
2019-02-03T15:05:31.505Z,4.40
2019-02-03T15:08:00.155Z,4.30
2019-02-03T15:10:30.307Z,4.30
2019-02-03T15:12:59.196Z,4.30
2019-02-03T15:15:29.350Z,4.30
2019-02-03T15:17:58.334Z,4.20
2019-02-03T15:20:27.656Z,4.20
2019-02-03T15:22:56.391Z,4.10
2019-02-03T15:25:24.983Z,4.10
2019-02-03T15:27:54.005Z,4.10
2019-02-03T15:30:28.705Z,4.00
2019-02-03T15:32:57.264Z,4.00
2019-02-03T15:35:25.917Z,4.00
2019-02-03T15:37:54.788Z,4.00
2019-02-03T15:40:24.751Z,4.00
2019-02-03T15:42:53.444Z,4.00
2019-02-03T15:45:26.132Z,4.00
2019-02-03T15:47:54.892Z,4.00
2019-02-03T15:50:25.497Z,3.90
2019-02-03T15:52:54.367Z,3.90
2019-02-03T15:55:34.484Z,3.90
2019-02-03T15:58:03.203Z,3.80
2019-02-03T16:00:40.637Z,3.80
2019-02-03T16:03:10.244Z,3.70
2019-02-03T16:05:39.167Z,3.60
2019-02-03T16:08:08.877Z,3.60
2019-02-03T16:10:37.683Z,3.50
2019-02-03T16:13:06.731Z,3.50
2019-02-03T16:15:35.362Z,3.50
2019-02-03T16:18:04.788Z,3.40
2019-02-03T16:20:33.388Z,3.80
2019-02-03T16:23:02.110Z,4.00
2019-02-03T16:25:30.804Z,4.00
2019-02-03T16:27:59.504Z,4.20
2019-02-03T16:30:38.629Z,4.30
2019-02-03T16:33:09.364Z,4.30
2019-02-03T16:35:38.373Z,4.30
2019-02-03T16:38:07.680Z,4.10
2019-02-03T16:40:36.308Z,3.90
2019-02-03T16:43:05.332Z,3.70
2019-02-03T16:45:35.395Z,3.70
2019-02-03T16:48:04.770Z,3.50
2019-02-03T16:50:33.545Z,3.40
2019-02-03T16:53:03.331Z,3.30
2019-02-03T16:55:32.342Z,3.20
2019-02-03T16:58:01.120Z,3.20
2019-02-03T17:00:30.842Z,3.10
2019-02-03T17:02:59.631Z,3.00
2019-02-03T17:05:30.482Z,3.00
2019-02-03T17:08:01.030Z,3.00
2019-02-03T17:10:29.936Z,3.10
2019-02-03T17:12:59.128Z,3.00
2019-02-03T17:15:32.833Z,3.00
2019-02-03T17:18:01.455Z,2.90
2019-02-03T17:20:30.133Z,2.90
2019-02-03T17:22:58.692Z,2.80
2019-02-03T17:25:36.021Z,2.80
2019-02-03T17:28:04.881Z,2.80
2019-02-03T17:30:33.794Z,2.80
2019-02-03T17:33:02.488Z,2.80
2019-02-03T17:35:31.197Z,2.70
2019-02-03T17:37:59.826Z,2.70
2019-02-03T17:40:28.539Z,2.70
2019-02-03T17:42:57.183Z,2.70
2019-02-03T17:45:26.802Z,2.70
2019-02-03T17:47:55.433Z,2.70
2019-02-03T17:50:29.477Z,2.70
2019-02-03T17:52:58.157Z,2.70
2019-02-03T17:55:26.912Z,2.60
2019-02-03T17:57:55.578Z,2.60
2019-02-03T18:00:28.591Z,2.60
2019-02-03T18:02:57.166Z,2.50
2019-02-03T18:05:25.779Z,2.50
2019-02-03T18:07:54.389Z,2.50
2019-02-03T18:10:23.939Z,2.40
2019-02-03T18:12:52.819Z,2.40
2019-02-03T18:15:21.501Z,2.40
2019-02-03T18:17:50.097Z,2.40
2019-02-03T18:20:26.693Z,2.40
2019-02-03T18:22:55.596Z,2.40
2019-02-03T18:25:24.839Z,2.40
2019-02-03T18:27:54.357Z,2.30
2019-02-03T18:30:27.996Z,2.60
2019-02-03T18:32:58.172Z,3.20
2019-02-03T18:35:26.802Z,3.60
2019-02-03T18:37:57.538Z,3.90
2019-02-03T18:40:26.165Z,4.10
2019-02-03T18:42:54.898Z,4.30
2019-02-03T18:45:25.529Z,4.00
2019-02-03T18:47:54.782Z,3.70
2019-02-03T18:50:26.213Z,3.50
2019-02-03T18:52:54.849Z,3.30
2019-02-03T18:55:29.189Z,3.10
2019-02-03T18:57:57.930Z,3.00
2019-02-03T19:00:29.207Z,2.90
2019-02-03T19:02:57.931Z,2.80
2019-02-03T19:05:29.350Z,2.70
2019-02-03T19:07:57.956Z,2.70
2019-02-03T19:10:27.479Z,2.60
2019-02-03T19:12:56.085Z,2.60
2019-02-03T19:15:27.368Z,2.60
2019-02-03T19:17:55.910Z,2.50
2019-02-03T19:20:27.226Z,2.50
2019-02-03T19:22:55.914Z,2.50
2019-02-03T19:25:25.049Z,2.80
2019-02-03T19:27:53.856Z,2.90
2019-02-03T19:30:24.649Z,3.00
2019-02-03T19:32:53.556Z,3.10
2019-02-03T19:35:27.760Z,3.00
2019-02-03T19:37:56.416Z,2.90
2019-02-03T19:40:30.798Z,2.90
2019-02-03T19:42:59.380Z,2.80
2019-02-03T19:45:30.182Z,2.70
2019-02-03T19:47:58.996Z,2.60
2019-02-03T19:50:36.146Z,2.60
2019-02-03T19:53:06.637Z,2.60
2019-02-03T19:55:35.474Z,2.90
2019-02-03T19:58:06.945Z,3.20
2019-02-03T20:00:38.129Z,3.50
2019-02-03T20:03:07.184Z,3.60
2019-02-03T20:05:36.035Z,3.60
2019-02-03T20:08:05.237Z,3.60
2019-02-03T20:10:34.573Z,3.70
2019-02-03T20:13:03.353Z,3.70
2019-02-03T20:15:32.070Z,3.80
2019-02-03T20:18:00.708Z,3.80
2019-02-03T20:20:34.943Z,3.70
2019-02-03T20:23:06.502Z,3.50
2019-02-03T20:25:34.220Z,3.30
2019-02-03T20:28:02.897Z,3.10
2019-02-03T20:30:38.687Z,3.00
2019-02-03T20:33:01.894Z,2.90
2019-02-03T20:35:30.678Z,2.90
2019-02-03T20:37:59.589Z,2.80
2019-02-03T20:40:39.813Z,2.70
2019-02-03T20:43:08.876Z,2.70
2019-02-03T20:45:48.365Z,2.60
2019-02-03T20:48:10.601Z,2.60
2019-02-03T20:50:38.293Z,2.60
2019-02-03T20:53:07.171Z,2.50
2019-02-03T20:55:37.682Z,2.50
2019-02-03T20:58:07.373Z,2.50
2019-02-03T21:00:38.003Z,2.50
2019-02-03T21:03:12.388Z,2.40
2019-02-03T21:05:41.441Z,2.40
2019-02-03T21:08:13.436Z,2.40
2019-02-03T21:10:41.980Z,2.40
2019-02-03T21:13:11.602Z,2.30
2019-02-03T21:15:40.525Z,2.20
2019-02-03T21:18:09.534Z,2.10
2019-02-03T21:20:38.150Z,2.00
2019-02-03T21:23:06.960Z,1.90
2019-02-03T21:25:35.593Z,1.90
2019-02-03T21:28:04.623Z,1.80
2019-02-03T21:30:38.052Z,1.80
2019-02-03T21:33:06.806Z,1.70
2019-02-03T21:35:35.432Z,1.70
2019-02-03T21:38:05.150Z,1.70
2019-02-03T21:40:33.721Z,1.60
2019-02-03T21:43:02.443Z,1.60
2019-02-03T21:45:31.034Z,1.50
2019-02-03T21:48:00.512Z,1.50
2019-02-03T21:50:32.113Z,1.50
2019-02-03T21:53:00.745Z,1.40
2019-02-03T21:55:29.458Z,1.40
2019-02-03T21:57:58.052Z,1.40
2019-02-03T22:00:31.933Z,1.40
2019-02-03T22:03:00.683Z,1.30
2019-02-03T22:05:29.845Z,1.30
2019-02-03T22:07:58.469Z,1.30
2019-02-03T22:10:34.790Z,1.30
2019-02-03T22:13:04.156Z,1.40
2019-02-03T22:15:32.782Z,1.30
2019-02-03T22:18:01.454Z,1.30
2019-02-03T22:20:30.650Z,1.20
2019-02-03T22:22:59.276Z,1.20
2019-02-03T22:25:27.888Z,1.20
2019-02-03T22:27:56.453Z,1.10
2019-02-03T22:30:33.560Z,1.10
2019-02-03T22:33:02.225Z,1.10
2019-02-03T22:35:30.873Z,1.10
2019-02-03T22:37:59.472Z,1.10
2019-02-03T22:40:28.028Z,1.10
2019-02-03T22:42:56.687Z,1.00
2019-02-03T22:45:25.905Z,1.00
2019-02-03T22:47:54.719Z,1.00
2019-02-03T22:50:31.757Z,1.00
2019-02-03T22:53:01.208Z,0.90
2019-02-03T22:55:29.771Z,0.90
2019-02-03T22:57:58.328Z,0.90
2019-02-03T23:00:51.540Z,0.80
2019-02-03T23:03:20.241Z,0.80
2019-02-03T23:05:48.992Z,0.70
2019-02-03T23:08:17.552Z,0.70
2019-02-03T23:10:46.122Z,0.70
2019-02-03T23:13:14.773Z,0.60
2019-02-03T23:15:43.517Z,0.60
2019-02-03T23:18:12.092Z,0.60
2019-02-03T23:20:40.724Z,0.60
2019-02-03T23:23:09.318Z,0.60
2019-02-03T23:25:37.976Z,0.60
2019-02-03T23:28:06.536Z,0.60
2019-02-03T23:30:35.143Z,0.60
2019-02-03T23:33:04.069Z,0.60
2019-02-03T23:35:32.700Z,0.60
2019-02-03T23:38:01.884Z,0.60
2019-02-03T23:40:31.743Z,0.60
2019-02-03T23:43:00.300Z,0.60
2019-02-03T23:45:28.962Z,0.50
2019-02-03T23:47:57.520Z,0.60
2019-02-03T23:50:26.121Z,0.50
2019-02-03T23:52:54.692Z,0.60
2019-02-03T23:55:23.261Z,0.60
2019-02-03T23:57:51.870Z,0.60
